createdAt,value
2022-12-15T15:47:36.105Z,121.03
2022-12-15T15:50:03.215Z,187.77
2022-12-15T15:52:36.009Z,86.40
2022-12-15T15:55:05.362Z,127.83
2022-12-15T15:57:32.178Z,164.57
2022-12-15T16:00:19.119Z,101.80
2022-12-15T16:02:57.946Z,139.67
2022-12-15T16:05:25.512Z,159.93
2022-12-15T16:07:54.546Z,77.87
2022-12-15T16:13:41.131Z,104.30
2022-12-15T16:16:18.338Z,110.33
2022-12-15T16:18:50.793Z,97.87
2022-12-15T16:21:27.805Z,108.90
2022-12-15T16:23:58.714Z,112.57
2022-12-15T16:26:31.525Z,127.80
2022-12-15T16:28:58.736Z,124.90
2022-12-15T16:35:08.344Z,163.40
2022-12-15T16:37:39.764Z,122.87
2022-12-15T16:40:19.542Z,107.60
2022-12-15T16:43:01.025Z,100.57
2022-12-15T16:45:48.662Z,73.10
2022-12-15T16:48:52.202Z,57.93
2022-12-15T16:52:00.993Z,99.37
2022-12-15T16:55:39.823Z,120.40
2022-12-15T16:59:31.979Z,93.77
2022-12-15T17:02:16.819Z,63.93
2022-12-15T17:05:16.169Z,76.00
2022-12-15T17:14:03.538Z,63.40
2022-12-15T17:16:37.457Z,46.70
2022-12-15T17:19:34.061Z,62.83
2022-12-15T17:31:20.179Z,55.50
2022-12-15T17:34:08.896Z,55.77
2022-12-15T17:36:52.457Z,56.30
2022-12-15T17:43:10.805Z,59.17
2022-12-15T17:45:48.008Z,66.83
2022-12-15T17:48:15.159Z,58.53
2022-12-15T17:50:42.120Z,45.23
2022-12-15T17:53:33.414Z,43.80
2022-12-15T17:56:06.569Z,33.80
2022-12-15T17:58:39.893Z,40.27
2022-12-15T18:01:11.461Z,42.47
2022-12-15T18:03:38.673Z,55.03
2022-12-15T18:06:12.443Z,45.67
2022-12-15T18:08:43.322Z,46.90
2022-12-15T18:11:16.597Z,58.77
2022-12-15T18:13:46.309Z,61.10
2022-12-15T18:16:24.743Z,70.20
2022-12-15T18:19:04.750Z,66.53
2022-12-15T18:21:37.459Z,88.40
2022-12-15T18:25:02.374Z,55.87
2022-12-15T18:27:58.214Z,64.87
2022-12-15T18:30:29.552Z,69.73
2022-12-15T18:32:58.891Z,74.43
2022-12-15T18:35:34.434Z,71.27
2022-12-15T18:38:01.461Z,60.50
2022-12-15T18:40:33.572Z,64.87
2022-12-15T18:43:00.411Z,55.00
2022-12-15T18:45:29.904Z,53.03
2022-12-15T18:47:59.242Z,49.33
2022-12-15T18:50:26.561Z,53.33
2022-12-15T18:53:17.768Z,49.37
2022-12-15T18:55:47.820Z,60.00
2022-12-15T18:58:36.731Z,45.93
2022-12-15T19:01:05.323Z,44.77
2022-12-15T19:03:33.700Z,45.40
2022-12-15T19:10:03.434Z,39.63
2022-12-15T19:13:01.171Z,42.30
2022-12-15T19:16:26.324Z,39.20
2022-12-15T19:24:03.334Z,31.30
2022-12-15T19:37:07.296Z,28.57
2022-12-15T19:39:48.122Z,24.27
2022-12-15T19:42:25.136Z,24.20
2022-12-15T19:48:24.021Z,25.93
2022-12-15T19:51:00.408Z,23.23
2022-12-15T19:54:10.473Z,27.60
2022-12-15T20:00:01.924Z,29.33
2022-12-15T20:05:54.475Z,24.47
2022-12-15T20:09:35.497Z,22.17
2022-12-15T20:15:18.010Z,20.90
2022-12-15T20:18:01.485Z,20.97
2022-12-15T20:20:38.158Z,19.33
2022-12-15T20:23:34.419Z,19.93
2022-12-15T20:26:07.385Z,20.30
2022-12-15T20:28:40.202Z,16.57
2022-12-15T20:31:41.641Z,14.30
2022-12-15T20:35:04.802Z,18.37
2022-12-15T21:00:13.164Z,12.67
2022-12-15T21:02:52.129Z,14.53
2022-12-15T21:05:57.271Z,16.57
2022-12-15T21:08:57.707Z,16.30
2022-12-15T21:11:42.849Z,14.93
2022-12-15T21:14:56.837Z,14.13
2022-12-15T21:25:24.400Z,14.27
2022-12-15T21:32:00.156Z,18.23
2022-12-15T21:34:41.972Z,14.13
2022-12-15T21:37:34.134Z,16.50
